Time;durP1;ratioP1;P1;durP2;ratioP2;P2;SDS_P1;SDS_P2;PMS_P1;PMS_P2;Temp;Humidity;BMP_temperature;BMP_pressure;BME280_temperature;BME280_humidity;BME280_pressure;Samples;Min_cycle;Max_cycle;Signal;HPM_P1;HPM_P2
2021/05/16 00:02:11;;;;;;;;;;;;;;;13.26;67.45;99900.98;1670697;84;20208;-93
2021/05/16 00:04:37;;;;;;;;;;;;;;;13.22;67.58;99909.13;1638616;87;20217;-93
2021/05/16 00:07:03;;;;;;;;;;;;;;;13.18;67.74;99902.57;1686458;85;20227;-93
2021/05/16 00:09:31;;;;;;;;;;;;;;;13.14;67.84;99903.52;1650827;86;20388;-92
2021/05/16 00:11:57;;;;;;;;;;;;;;;13.11;67.91;99906.64;1695433;83;20226;-92
2021/05/16 00:14:23;;;;;;;;;;;;;;;13.07;67.93;99904.59;1709121;83;20170;-94
2021/05/16 00:16:50;;;;;;;;;;;;;;;13.04;67.98;99914.69;1720436;83;20180;-95
2021/05/16 00:19:16;;;;;;;;;;;;;;;13.02;68.02;99913.28;1722728;83;20239;-95
2021/05/16 00:21:42;;;;;;;;;;;;;;;12.99;68.20;99911.83;1722709;83;20195;-92
2021/05/16 00:24:08;;;;;;;;;;;;;;;13.07;67.91;99906.74;1677652;84;20176;-94
2021/05/16 00:26:34;;;;;;;;;;;;;;;13.16;67.85;99906.80;1693938;83;20119;-90
2021/05/16 00:29:01;;;;;;;;;;;;;;;13.22;67.72;99906.45;1690234;81;20236;-92
2021/05/16 00:31:27;;;;;;;;;;;;;;;13.27;67.64;99910.64;1699122;81;20174;-91
2021/05/16 00:33:53;;;;;;;;;;;;;;;13.26;67.65;99906.34;1694983;83;20245;-92
2021/05/16 00:36:19;;;;;;;;;;;;;;;13.25;67.57;99906.84;1694618;83;20185;-93
2021/05/16 00:38:45;;;;;;;;;;;;;;;13.28;67.39;99907.44;1695020;83;20222;-94
2021/05/16 00:41:11;;;;;;;;;;;;;;;13.26;67.33;99910.36;1691796;85;20153;-92
2021/05/16 00:43:37;;;;;;;;;;;;;;;13.29;67.26;99915.26;1695737;83;20530;-92
2021/05/16 00:46:08;;;;;;;;;;;;;;;13.29;67.39;99911.24;1702815;83;20245;-93
2021/05/16 00:48:34;;;;;;;;;;;;;;;13.24;67.54;99917.26;1686053;85;20182;-93
2021/05/16 00:51:00;;;;;;;;;;;;;;;13.17;67.70;99912.46;1693479;83;20190;-93
2021/05/16 00:53:26;;;;;;;;;;;;;;;13.10;67.96;99914.35;1694812;84;20254;-91
2021/05/16 00:55:54;;;;;;;;;;;;;;;13.00;68.27;99918.84;1690121;83;20435;-88
2021/05/16 00:58:20;;;;;;;;;;;;;;;12.92;68.62;99923.61;1672636;83;20202;-90
2021/05/16 01:00:46;;;;;;;;;;;;;;;12.83;68.70;99921.72;1646729;85;20204;-92
2021/05/16 01:03:14;;;;;;;;;;;;;;;12.78;69.01;99924.20;1688169;83;20570;-93
2021/05/16 01:05:44;;;;;;;;;;;;;;;12.73;69.23;99918.66;1669158;83;20196;-93
2021/05/16 01:08:12;;;;;;;;;;;;;;;12.68;69.41;99918.47;1680479;83;20178;-92
2021/05/16 01:10:41;;;;;;;;;;;;;;;12.64;69.38;99919.44;1700740;83;20186;-93
2021/05/16 01:13:10;;;;;;;;;;;;;;;11.96;69.23;99812.47;1672543;84;20191;-94
2021/05/16 01:15:38;;;;;;;;;;;;;;;12.49;69.55;99902.32;1705383;83;20169;-93
2021/05/16 01:18:05;;;;;;;;;;;;;;;12.70;69.36;99929.27;1702984;84;21060;-93
2021/05/16 01:20:35;;;;;;;;;;;;;;;12.76;69.26;99930.28;1703300;84;20189;-91
2021/05/16 01:23:11;;;;;;;;;;;;;;;12.78;69.30;99924.20;1700229;83;20558;-93
2021/05/16 01:25:42;;;;;;;;;;;;;;;12.80;69.33;99927.48;1703283;83;20241;-92
2021/05/16 01:28:10;;;;;;;;;;;;;;;12.79;69.54;99931.17;1710254;83;20214;-92
2021/05/16 01:30:37;;;;;;;;;;;;;;;12.77;69.60;99922.55;1703235;83;20257;-93
2021/05/16 01:33:06;;;;;;;;;;;;;;;12.76;69.71;99931.62;1713086;83;20207;-92
2021/05/16 01:35:33;;;;;;;;;;;;;;;12.71;69.71;99927.41;1715622;82;20214;-92
2021/05/16 01:38:00;;;;;;;;;;;;;;;12.62;69.81;99933.02;1684576;83;20221;-93
2021/05/16 01:40:27;;;;;;;;;;;;;;;12.56;69.96;99936.51;1716253;83;20175;-91
2021/05/16 01:42:56;;;;;;;;;;;;;;;12.50;70.17;99936.02;1714759;81;20229;-93
2021/05/16 01:45:27;;;;;;;;;;;;;;;12.43;70.68;99929.38;1703618;83;20211;-92
2021/05/16 01:47:56;;;;;;;;;;;;;;;12.44;70.51;99924.32;1678670;83;20202;-93
2021/05/16 01:50:26;;;;;;;;;;;;;;;12.47;70.42;99927.11;1700055;83;20526;-92
2021/05/16 01:52:54;;;;;;;;;;;;;;;12.44;70.47;99930.19;1700917;83;20221;-93
2021/05/16 01:55:20;;;;;;;;;;;;;;;12.41;70.58;99933.27;1703629;83;20291;-92
2021/05/16 01:57:47;;;;;;;;;;;;;;;12.31;70.88;99939.58;1706590;83;20239;-92
2021/05/16 02:00:23;;;;;;;;;;;;;;;12.25;71.17;99951.41;1710570;83;20301;-92
2021/05/16 02:02:50;;;;;;;;;;;;;;;12.20;71.28;99947.72;1728804;82;20606;-93
2021/05/16 02:05:20;;;;;;;;;;;;;;;12.19;71.37;99943.42;1726849;82;20192;-92
2021/05/16 02:07:51;;;;;;;;;;;;;;;12.15;71.39;99952.36;1702262;82;20213;-91
2021/05/16 02:10:21;;;;;;;;;;;;;;;12.10;71.44;99952.16;1711337;83;20251;-92
2021/05/16 02:12:49;;;;;;;;;;;;;;;12.06;71.59;99945.59;1730371;81;20164;-91
2021/05/16 02:15:17;;;;;;;;;;;;;;;12.00;71.67;99954.44;1718527;82;20152;-92
2021/05/16 02:17:44;;;;;;;;;;;;;;;11.92;71.83;99955.97;1723655;82;20195;-92
2021/05/16 02:20:16;;;;;;;;;;;;;;;11.87;72.08;99954.71;1731272;83;21003;-92
2021/05/16 02:22:43;;;;;;;;;;;;;;;11.85;72.23;99959.44;1731627;81;20166;-93
2021/05/16 02:25:10;;;;;;;;;;;;;;;11.83;72.40;99964.69;1740349;82;20165;-92
2021/05/16 02:27:38;;;;;;;;;;;;;;;11.79;72.53;99968.77;1744963;81;20265;-92
2021/05/16 02:30:08;;;;;;;;;;;;;;;11.80;72.63;99965.09;1745069;82;20231;-91
2021/05/16 02:32:37;;;;;;;;;;;;;;;11.91;72.57;99963.69;1747877;80;20512;-92
2021/05/16 02:35:04;;;;;;;;;;;;;;;11.99;72.46;99966.95;1722093;81;20203;-92
2021/05/16 02:37:36;;;;;;;;;;;;;;;12.05;72.58;99963.48;1727042;82;20160;-92
2021/05/16 02:40:05;;;;;;;;;;;;;;;12.12;72.49;99966.12;1719696;83;20212;-92
2021/05/16 02:42:32;;;;;;;;;;;;;;;12.15;72.36;99963.05;1725606;79;20220;-91
2021/05/16 02:45:00;;;;;;;;;;;;;;;12.12;72.49;99970.13;1743625;81;20510;-92
2021/05/16 02:47:26;;;;;;;;;;;;;;;12.06;72.63;99965.63;1736069;82;20191;-92
2021/05/16 02:49:53;;;;;;;;;;;;;;;12.12;72.59;99976.81;1741732;80;20220;-91
2021/05/16 02:52:19;;;;;;;;;;;;;;;12.14;72.76;99971.27;1701859;80;20179;-91
2021/05/16 02:54:47;;;;;;;;;;;;;;;12.18;72.89;99973.30;1712801;82;20161;-92
2021/05/16 02:57:13;;;;;;;;;;;;;;;12.30;73.10;99980.69;1727693;82;20243;-92
2021/05/16 02:59:40;;;;;;;;;;;;;;;12.58;72.93;99984.42;1706828;83;20174;-91
2021/05/16 03:02:08;;;;;;;;;;;;;;;12.99;72.10;99982.73;1708364;82;20176;-91
2021/05/16 03:04:34;;;;;;;;;;;;;;;13.44;70.89;99978.70;1703643;82;20353;-91
2021/05/16 03:07:01;;;;;;;;;;;;;;;14.01;69.53;99979.20;1702277;82;20242;-91
2021/05/16 03:09:29;;;;;;;;;;;;;;;14.66;67.58;99978.00;1712164;83;20232;-91
2021/05/16 03:11:55;;;;;;;;;;;;;;;15.25;65.48;99979.63;1695597;82;20204;-89
2021/05/16 03:14:22;;;;;;;;;;;;;;;15.80;63.63;99979.97;1702486;83;20808;-89
2021/05/16 03:16:49;;;;;;;;;;;;;;;16.25;62.04;99983.45;1716779;82;20192;-91
2021/05/16 03:19:16;;;;;;;;;;;;;;;16.67;60.92;99985.96;1725114;82;20207;-89
2021/05/16 03:21:43;;;;;;;;;;;;;;;17.06;58.87;99978.17;1715546;83;20271;-88
2021/05/16 03:24:10;;;;;;;;;;;;;;;17.32;58.48;99988.36;1711311;82;20191;-90
2021/05/16 03:26:36;;;;;;;;;;;;;;;17.63;57.43;99986.23;1683853;84;20237;-90
2021/05/16 03:29:04;;;;;;;;;;;;;;;17.99;56.28;99983.30;1702263;83;20189;-91
2021/05/16 03:31:31;;;;;;;;;;;;;;;18.35;55.12;99979.27;1697353;83;20209;-91
2021/05/16 03:33:57;;;;;;;;;;;;;;;18.70;54.08;99982.15;1719718;81;20234;-90
2021/05/16 03:36:24;;;;;;;;;;;;;;;19.03;52.94;99980.42;1742039;81;20247;-90
2021/05/16 03:38:51;;;;;;;;;;;;;;;19.38;51.92;99981.86;1718451;82;20181;-91
2021/05/16 03:41:17;;;;;;;;;;;;;;;19.65;50.93;99986.72;1706987;82;20258;-89
2021/05/16 03:43:45;;;;;;;;;;;;;;;19.81;50.05;99984.98;1748116;82;20232;-90
2021/05/16 03:46:11;;;;;;;;;;;;;;;19.89;50.12;99989.12;1697111;82;20207;-92
2021/05/16 03:48:38;;;;;;;;;;;;;;;20.09;49.73;99993.05;1729553;82;20214;-90
2021/05/16 03:51:05;;;;;;;;;;;;;;;20.34;48.90;99987.81;1711220;82;20212;-88
2021/05/16 03:53:31;;;;;;;;;;;;;;;20.60;48.16;99987.96;1720530;81;20203;-91
2021/05/16 03:58:19;;;;;;;13.05;11.83;;;;;;;21.04;46.27;99994.39;1803870;77;22933;-89
2021/05/16 04:00:45;;;;;;;12.78;11.60;;;;;;;20.67;46.53;100010.20;1777265;78;21103;-87
2021/05/16 04:03:11;;;;;;;13.35;12.00;;;;;;;20.37;47.52;100008.92;1735281;81;21153;-91
2021/05/16 04:05:37;;;;;;;;;;;;;;;20.31;47.93;100008.62;1746288;81;21070;-89
2021/05/16 04:08:04;;;;;;;16.73;11.28;;;;;;;20.33;48.15;100013.23;1739271;81;20332;-90
2021/05/16 04:10:30;;;;;;;12.63;11.38;;;;;;;20.53;48.37;100016.61;1732472;81;21066;-88
2021/05/16 04:12:57;;;;;;;12.37;10.00;;;;;;;20.90;47.51;100010.30;1758909;80;22095;-89
2021/05/16 04:15:24;;;;;;;10.93;9.83;;;;;;;21.24;46.95;100012.58;1762208;79;21365;-87
2021/05/16 04:17:50;;;;;;;11.08;10.00;;;;;;;21.51;46.37;100006.99;1773003;81;21007;-89
2021/05/16 04:20:17;;;;;;;11.28;10.13;;;;;;;21.67;46.36;100007.01;1765230;80;21042;-90
2021/05/16 04:22:43;;;;;;;10.68;9.60;;;;;;;21.88;45.74;100005.91;1761022;80;21006;-87
2021/05/16 04:25:11;;;;;;;;;;;;;;;22.11;44.79;100007.28;1746840;81;21074;-89
2021/05/16 04:27:37;;;;;;;14.30;10.65;;;;;;;22.04;45.05;100009.97;1725772;81;20244;-88
2021/05/16 04:30:06;;;;;;;;;;;;;;;21.94;44.95;100006.20;1731966;81;21629;-88
2021/05/16 04:32:32;;;;;;;11.38;10.30;;;;;;;21.96;45.55;99994.53;1732091;81;20195;-89
2021/05/16 04:35:00;;;;;;;9.23;8.58;;;;;;;22.24;45.02;99992.31;1690893;82;21682;-88
2021/05/16 04:37:26;;;;;;;11.10;9.73;;;;;;;22.60;44.58;99998.23;1704062;83;21065;-87
2021/05/16 04:39:53;;;;;;;11.55;10.03;;;;;;;23.00;43.47;99993.19;1706750;82;21093;-88
2021/05/16 04:42:19;;;;;;;10.23;9.13;;;;;;;23.42;42.95;99989.16;1672685;84;21190;-87
2021/05/16 04:44:47;;;;;;;10.65;9.75;;;;;;;23.80;42.15;99984.00;1669973;83;21055;-87
2021/05/16 04:47:13;;;;;;;8.73;7.92;;;;;;;24.15;41.81;99986.16;1664049;85;21126;-86
2021/05/16 04:49:41;;;;;;;10.05;9.15;;;;;;;24.38;40.18;99979.09;1666490;85;21809;-86
2021/05/16 04:52:09;;;;;;;9.28;8.48;;;;;;;24.42;40.37;99977.97;1663267;85;21106;-87
2021/05/16 04:54:39;;;;;;;10.93;9.73;;;;;;;24.48;40.21;99980.89;1685912;84;21191;-85
2021/05/16 04:57:05;;;;;;;9.65;8.95;;;;;;;24.51;39.85;99977.59;1663808;85;21120;-84
2021/05/16 04:59:32;;;;;;;9.35;8.48;;;;;;;24.16;40.24;99983.67;1642742;86;21143;-85
2021/05/16 05:02:04;;;;;;;8.88;7.97;;;;;;;23.72;41.41;99977.80;1663154;85;21200;-87
2021/05/16 05:04:29;;;;;;;8.38;7.58;;;;;;;23.69;41.56;99976.44;1659467;85;21238;-85
2021/05/16 05:06:55;;;;;;;8.03;7.40;;;;;;;23.86;41.35;99976.05;1668772;85;21160;-84
2021/05/16 05:09:22;;;;;;;8.58;7.92;;;;;;;24.07;40.69;99975.87;1666595;85;21148;-87
2021/05/16 05:11:48;;;;;;;8.30;7.70;;;;;;;24.16;40.45;99972.78;1661058;85;21590;-86
2021/05/16 05:14:14;;;;;;;7.78;7.17;;;;;;;24.26;40.91;99972.70;1664495;84;21167;-84
2021/05/16 05:16:41;;;;;;;9.50;7.53;;;;;;;24.37;40.91;99979.38;1674017;84;21713;-86
2021/05/16 05:19:07;;;;;;;8.95;8.05;;;;;;;24.54;40.56;99977.03;1649178;84;21110;-87
2021/05/16 05:21:33;;;;;;;9.33;6.53;;;;;;;24.75;40.03;99975.42;1666577;84;21091;-85
2021/05/16 05:24:01;;;;;;;7.03;6.47;;;;;;;24.94;39.69;99959.92;1673702;84;21056;-85
2021/05/16 05:26:28;;;;;;;8.00;7.28;;;;;;;25.11;39.13;99963.51;1702559;83;21367;-87
2021/05/16 05:28:57;;;;;;;8.80;7.75;;;;;;;25.15;38.90;99958.28;1669259;85;21171;-88
2021/05/16 05:31:24;;;;;;;8.13;7.50;;;;;;;24.92;39.36;99960.78;1673559;85;21682;-88
2021/05/16 05:33:52;;;;;;;7.47;6.97;;;;;;;24.85;39.71;99958.95;1660716;85;21060;-87
2021/05/16 05:36:18;;;;;;;9.28;8.58;;;;;;;24.03;39.80;99829.19;1633237;86;21138;-87
2021/05/16 05:38:44;;;;;;;10.00;8.75;;;;;;;24.70;39.91;99956.44;1657322;85;21099;-85
2021/05/16 05:41:13;;;;;;;9.80;9.10;;;;;;;24.31;40.68;99951.39;1650277;85;21162;-84
2021/05/16 05:43:40;;;;;;;8.65;8.00;;;;;;;23.85;41.32;99953.23;1662913;85;21571;-86
2021/05/16 05:46:06;;;;;;;8.68;8.08;;;;;;;23.50;42.42;99952.39;1684853;83;21094;-86
2021/05/16 05:48:33;;;;;;;9.78;8.95;;;;;;;23.69;42.24;99955.23;1678116;83;21088;-88
2021/05/16 05:50:59;;;;;;;12.28;9.20;;;;;;;24.04;41.67;99960.12;1682871;83;21707;-87
2021/05/16 05:53:25;;;;;;;9.73;8.33;;;;;;;24.28;41.22;99959.59;1683293;83;21091;-87
2021/05/16 05:55:51;;;;;;;9.40;8.48;;;;;;;24.56;40.66;99957.67;1697718;83;21877;-86
2021/05/16 05:58:17;;;;;;;9.78;8.80;;;;;;;24.78;40.32;99944.31;1703277;83;21062;-85
2021/05/16 06:00:43;;;;;;;8.30;7.60;;;;;;;24.94;39.80;99950.91;1678627;85;21170;-86
2021/05/16 06:03:09;;;;;;;8.28;7.58;;;;;;;25.09;40.33;99959.44;1652425;85;21302;-86
2021/05/16 06:05:35;;;;;;;7.85;7.25;;;;;;;25.22;39.08;99953.24;1670908;84;21651;-85
2021/05/16 06:08:03;;;;;;;7.03;6.60;;;;;;;25.39;38.51;99952.22;1667380;84;21110;-86
2021/05/16 06:10:31;;;;;;;7.65;7.08;;;;;;;25.58;38.17;99945.89;1690149;84;21123;-86
2021/05/16 06:12:57;;;;;;;8.80;8.20;;;;;;;25.71;37.74;99952.51;1674851;84;21613;-84
2021/05/16 06:15:25;;;;;;;7.87;7.28;;;;;;;25.77;37.65;99952.70;1651290;86;21225;-86
2021/05/16 06:17:52;;;;;;;7.08;6.47;;;;;;;25.86;37.25;99955.53;1679419;84;21121;-86
2021/05/16 06:20:18;;;;;;;6.92;6.42;;;;;;;25.91;37.51;99960.34;1642556;86;21054;-86
2021/05/16 06:22:44;;;;;;;6.78;6.25;;;;;;;25.98;37.29;99958.08;1639066;83;21119;-86
2021/05/16 06:25:12;;;;;;;5.90;5.30;;;;;;;25.91;37.12;99955.45;1696190;81;21124;-88
2021/05/16 06:27:38;;;;;;;5.97;5.58;;;;;;;26.00;37.84;99957.78;1712526;83;21151;-86
2021/05/16 06:30:07;;;;;;;5.22;4.92;;;;;;;26.21;36.57;99954.11;1712775;83;21116;-86
2021/05/16 06:32:33;;;;;;;4.20;3.70;;;;;;;26.38;35.88;99953.52;1709651;83;21940;-88
2021/05/16 06:34:59;;;;;;;7.92;5.25;;;;;;;26.39;35.74;99961.41;1670857;83;21290;-86
2021/05/16 06:37:27;;;;;;;6.15;5.58;;;;;;;26.29;35.67;99958.06;1669931;84;21645;-88
2021/05/16 06:39:53;;;;;;;4.75;4.45;;;;;;;26.01;35.86;99958.02;1662508;84;21129;-88
2021/05/16 06:42:21;;;;;;;7.12;5.10;;;;;;;25.81;35.78;99953.72;1636174;84;21149;-89
2021/05/16 06:44:49;;;;;;;5.75;5.40;;;;;;;25.72;36.26;99956.31;1682195;83;21070;-88
2021/05/16 06:47:18;;;;;;;5.10;4.80;;;;;;;25.73;36.72;99961.20;1715638;82;21091;-86
2021/05/16 06:49:50;;;;;;;4.78;4.40;;;;;;;25.77;36.61;99955.43;1701929;83;21104;-87
2021/05/16 06:52:15;;;;;;;4.20;3.60;;;;;;;25.82;36.51;99948.50;1695470;84;21657;-87
2021/05/16 06:54:42;;;;;;;2.27;2.17;;;;;;;25.77;36.07;99946.68;1694965;83;21140;-87
2021/05/16 06:57:11;;;;;;;2.72;2.52;;;;;;;25.61;35.32;99948.03;1682434;83;21559;-88
2021/05/16 06:59:37;;;;;;;2.87;2.67;;;;;;;25.67;34.95;99945.47;1693262;85;21164;-88
2021/05/16 07:02:05;;;;;;;3.37;3.17;;;;;;;25.77;35.00;99948.05;1702109;82;21034;-88
2021/05/16 07:04:31;;;;;;;1.77;1.70;;;;;;;25.73;35.25;99948.39;1678844;85;21154;-89
2021/05/16 07:06:59;;;;;;;2.52;0.88;;;;;;;25.88;34.76;99956.05;1679249;83;21074;-88
2021/05/16 07:09:26;;;;;;;1.02;1.00;;;;;;;25.71;33.66;99955.23;1702772;83;21097;-86
2021/05/16 07:11:57;;;;;;;1.12;1.07;;;;;;;25.27;34.15;99955.94;1696920;82;21121;-87
2021/05/16 07:14:21;;;;;;;1.37;1.10;;;;;;;24.86;35.18;99961.92;1673072;85;21556;-87
2021/05/16 07:16:48;;;;;;;0.42;0.42;;;;;;;24.67;36.25;99961.90;1661814;86;21091;-86
2021/05/16 07:19:15;;;;;;;1.95;0.70;;;;;;;24.72;35.18;99955.03;1653231;86;21178;-86
2021/05/16 07:21:45;;;;;;;4.00;1.50;;;;;;;24.73;35.72;99957.19;1655614;86;21125;-88
2021/05/16 07:24:11;;;;;;;1.65;1.25;;;;;;;24.85;36.14;99956.23;1716352;82;21200;-87
2021/05/16 07:26:38;;;;;;;2.45;2.30;;;;;;;24.86;35.67;99954.58;1737829;82;21063;-90
2021/05/16 07:29:04;;;;;;;2.55;2.25;;;;;;;24.76;36.17;99960.70;1744054;81;21067;-88
2021/05/16 07:31:30;;;;;;;3.08;2.08;;;;;;;24.46;36.95;99965.39;1732688;82;21040;-88
2021/05/16 07:33:56;;;;;;;3.12;0.80;;;;;;;24.12;36.84;99966.85;1738785;81;21729;-89
2021/05/16 07:36:24;;;;;;;2.05;0.20;;;;;;;23.81;37.04;99972.03;1722892;80;21080;-89
2021/05/16 07:38:51;;;;;;;0.75;0.40;;;;;;;23.45;36.10;99976.89;1721230;82;21670;-88
2021/05/16 07:41:22;;;;;;;1.30;0.65;;;;;;;23.17;37.31;99972.47;1737203;82;21638;-87
2021/05/16 07:43:46;;;;;;;0.40;0.40;;;;;;;23.06;37.38;99973.62;1736484;82;21191;-88
2021/05/16 07:46:12;;;;;;;1.52;0.37;;;;;;;22.89;37.46;99966.60;1700510;82;21593;-88
2021/05/16 07:48:38;;;;;;;0.50;0.20;;;;;;;22.64;37.03;99977.05;1709531;83;21159;-89
2021/05/16 07:51:06;;;;;;;0.30;0.30;;;;;;;22.45;38.12;99971.41;1711156;83;21073;-90
2021/05/16 07:53:35;;;;;;;0.20;0.20;;;;;;;22.41;38.22;99964.08;1707773;83;21154;-90
2021/05/16 07:56:03;;;;;;;0.57;0.30;;;;;;;22.43;38.14;99964.05;1708009;83;21362;-88
2021/05/16 07:58:30;;;;;;;0.40;0.33;;;;;;;22.49;38.67;99960.26;1709045;83;21789;-87
2021/05/16 08:00:57;;;;;;;2.47;0.88;;;;;;;22.60;38.53;99965.08;1713688;82;21708;-89
2021/05/16 08:03:24;;;;;;;3.45;0.55;;;;;;;22.63;38.25;99967.25;1710757;82;21148;-88
2021/05/16 08:05:51;;;;;;;1.55;0.35;;;;;;;22.54;38.92;99959.41;1712613;82;21127;-88
2021/05/16 08:08:19;;;;;;;0.40;0.37;;;;;;;22.37;38.83;99958.38;1704396;82;21160;-90
2021/05/16 08:10:46;;;;;;;0.40;0.40;;;;;;;22.34;37.99;99958.40;1688220;83;21131;-88
2021/05/16 08:13:12;;;;;;;0.40;0.40;;;;;;;22.27;38.61;99949.72;1680915;82;21126;-87
2021/05/16 08:15:39;;;;;;;0.23;0.23;;;;;;;22.28;38.73;99955.44;1707099;82;21153;-90
2021/05/16 08:18:06;;;;;;;0.30;0.30;;;;;;;22.35;38.98;99950.50;1713454;82;21064;-88
2021/05/16 08:20:34;;;;;;;2.17;0.30;;;;;;;22.46;38.85;99952.65;1712072;82;21029;-88
2021/05/16 08:23:00;;;;;;;0.55;0.55;;;;;;;22.53;38.50;99956.44;1714412;82;21516;-91
2021/05/16 08:25:31;;;;;;;1.10;0.30;;;;;;;22.55;39.22;99955.63;1712977;82;21107;-88
2021/05/16 08:27:58;;;;;;;3.90;0.53;;;;;;;22.52;38.75;99961.04;1706371;82;21115;-87
2021/05/16 08:30:24;;;;;;;1.27;0.40;;;;;;;22.51;38.48;99953.20;1711056;82;21303;-89
2021/05/16 08:32:50;;;;;;;0.20;0.20;;;;;;;22.58;38.13;99955.05;1714283;82;21756;-87
2021/05/16 08:35:16;;;;;;;0.47;0.23;;;;;;;22.73;37.61;99955.53;1705363;82;21007;-90
2021/05/16 08:37:45;;;;;;;0.98;0.40;;;;;;;22.86;37.13;99950.04;1714646;84;21084;-90
2021/05/16 08:40:13;;;;;;;0.30;0.20;;;;;;;22.92;37.82;99959.27;1713016;83;21032;-87
2021/05/16 08:42:39;;;;;;;1.37;0.20;;;;;;;22.97;36.82;99958.41;1712095;84;21099;-89
2021/05/16 08:45:10;;;;;;;0.40;0.25;;;;;;;22.89;36.32;99957.09;1692071;82;21183;-89
2021/05/16 08:47:35;;;;;;;0.20;0.20;;;;;;;22.81;36.39;99959.05;1682141;84;21143;-92
2021/05/16 08:50:02;;;;;;;0.40;0.28;;;;;;;22.81;36.76;99953.61;1658438;85;21025;-87
2021/05/16 08:52:28;;;;;;;0.40;0.25;;;;;;;22.85;36.50;99946.52;1680928;84;21094;-90
2021/05/16 08:54:57;;;;;;;0.70;0.40;;;;;;;22.81;36.97;99938.67;1661213;85;21251;-88
2021/05/16 08:57:23;;;;;;;0.78;0.20;;;;;;;22.78;36.15;99938.41;1682612;84;21088;-88
2021/05/16 09:00:10;;;;;;;1.00;0.10;;;;;;;22.79;36.66;99938.66;1705581;83;21745;-88
2021/05/16 09:03:03;;;;;;;0.20;0.20;;;;;;;22.86;36.84;99935.09;1702275;82;21187;-90
2021/05/16 09:05:35;;;;;;;0.40;0.20;;;;;;;23.00;35.94;99929.32;1689532;82;21139;-87
2021/05/16 09:08:09;;;;;;;0.15;0.15;;;;;;;23.09;35.39;99924.95;1687084;82;21062;-89
2021/05/16 09:10:36;;;;;;;0.62;0.15;;;;;;;23.19;35.48;99919.98;1689955;82;21630;-87
2021/05/16 09:13:12;;;;;;;1.92;0.13;;;;;;;23.34;35.57;99913.62;1708905;83;21179;-90
2021/05/16 09:15:39;;;;;;;0.80;0.10;;;;;;;23.41;33.82;99916.81;1682144;84;21071;-89
2021/05/16 09:18:05;;;;;;;0.72;0.10;;;;;;;23.25;34.43;99913.41;1695073;83;20988;-88
2021/05/16 09:20:32;;;;;;;0.13;0.13;;;;;;;23.13;34.31;99911.58;1700815;83;21010;-88
2021/05/16 09:22:58;;;;;;;0.20;0.10;;;;;;;23.15;34.55;99903.14;1703356;83;21076;-89
2021/05/16 09:25:31;;;;;;;0.62;0.20;;;;;;;23.29;34.65;99901.42;1695149;83;21057;-87
2021/05/16 09:28:14;;;;;;;2.75;0.30;;;;;;;23.38;34.36;99902.44;1693219;83;21639;-88
2021/05/16 09:30:42;;;;;;;0.70;0.20;;;;;;;23.43;34.30;99898.86;1683025;83;21128;-87
2021/05/16 09:33:13;;;;;;;2.90;0.62;;;;;;;23.47;34.13;99899.38;1681872;83;21180;-87
2021/05/16 09:35:55;;;;;;;7.75;0.68;;;;;;;23.52;34.16;99896.59;1692156;82;21068;-89
2021/05/16 09:38:22;;;;;;;4.25;1.07;;;;;;;23.64;33.51;99894.87;1693973;82;21162;-89
2021/05/16 09:40:52;;;;;;;5.28;1.25;;;;;;;23.73;34.08;99895.05;1718756;82;21112;-89
2021/05/16 09:43:24;;;;;;;2.90;0.13;;;;;;;23.83;33.58;99893.64;1704055;83;21117;-91
2021/05/16 09:46:08;;;;;;;0.93;0.10;;;;;;;23.90;32.53;99905.00;1687900;84;21055;-90
2021/05/16 09:48:42;;;;;;;1.02;0.10;;;;;;;23.92;32.50;99895.72;1686173;83;21075;-93
2021/05/16 09:51:24;;;;;;;0.80;0.20;;;;;;;23.89;31.59;99897.92;1660062;85;21715;-89
2021/05/16 09:54:04;;;;;;;3.20;0.20;;;;;;;23.80;31.97;99900.20;1669450;84;21212;-89
2021/05/16 09:56:43;;;;;;;0.50;0.10;;;;;;;23.73;32.38;99899.12;1688912;83;21088;-89
2021/05/16 09:59:11;;;;;;;0.28;0.25;;;;;;;23.78;32.78;99896.93;1659027;84;21152;-91
2021/05/16 10:01:39;;;;;;;1.50;0.10;;;;;;;23.78;32.90;99903.17;1684405;83;21671;-89
2021/05/16 10:04:07;;;;;;;1.52;0.20;;;;;;;23.82;32.44;99906.16;1659939;85;21726;-89
2021/05/16 10:06:36;;;;;;;2.55;0.10;;;;;;;23.81;33.25;99906.72;1691822;83;21111;-88
2021/05/16 10:09:04;;;;;;;0.30;0.10;;;;;;;23.77;32.73;99897.48;1691398;84;21174;-90
2021/05/16 10:11:31;;;;;;;3.12;0.10;;;;;;;23.73;33.19;99897.77;1692445;83;21779;-89
2021/05/16 10:14:06;;;;;;;0.88;0.20;;;;;;;23.74;33.62;99893.97;1686632;84;21091;-88
2021/05/16 10:16:49;;;;;;;1.35;0.10;;;;;;;23.85;33.59;99891.44;1681354;84;21444;-90
2021/05/16 10:19:19;;;;;;;0.40;0.10;;;;;;;23.94;32.93;99887.55;1674509;84;21107;-90
2021/05/16 10:22:13;;;;;;;1.25;0.23;;;;;;;23.90;32.82;99874.23;1682640;84;21857;-90
2021/05/16 10:24:44;;;;;;;0.10;0.10;;;;;;;23.90;33.30;99872.34;1706466;83;21178;-89
2021/05/16 10:27:30;;;;;;;0.20;0.10;;;;;;;23.97;33.02;99865.73;1713920;83;21090;-89
2021/05/16 10:30:07;;;;;;;0.10;0.10;;;;;;;24.07;33.19;99856.08;1706081;83;20990;-90
2021/05/16 10:32:38;;;;;;;0.20;0.10;;;;;;;24.23;32.33;99864.34;1711863;83;21034;-90
2021/05/16 10:35:12;;;;;;;0.90;0.20;;;;;;;24.27;32.13;99855.84;1674236;85;21141;-90
2021/05/16 10:37:56;;;;;;;0.98;0.10;;;;;;;24.33;32.28;99859.87;1684350;85;21074;-88
2021/05/16 10:40:33;;;;;;;0.30;0.08;;;;;;;24.36;31.93;99866.91;1675388;85;21197;-89
2021/05/16 10:43:05;;;;;;;0.20;0.10;;;;;;;24.32;31.28;99869.13;1647696;86;21067;-90
2021/05/16 10:45:38;;;;;;;0.30;0.10;;;;;;;24.27;32.36;99855.03;1676689;84;21024;-87
2021/05/16 10:48:16;;;;;;;3.08;0.35;;;;;;;24.20;32.71;99851.85;1686838;83;21705;-87
2021/05/16 10:50:57;;;;;;;2.12;0.10;;;;;;;24.16;32.77;99854.90;1687069;83;21160;-89
2021/05/16 10:53:35;;;;;;;0.35;0.10;;;;;;;24.18;33.04;99845.89;1688635;83;21099;-89
2021/05/16 10:56:16;;;;;;;0.37;0.10;;;;;;;24.18;32.38;99848.61;1674970;84;21112;-88
2021/05/16 10:58:47;;;;;;;2.47;0.10;;;;;;;24.14;32.75;99848.37;1679455;84;21160;-89
2021/05/16 11:01:30;;;;;;;1.42;0.30;;;;;;;24.13;32.66;99844.58;1625511;85;21554;-89
2021/05/16 11:04:00;;;;;;;0.30;0.10;;;;;;;24.19;32.35;99832.55;1649523;85;21681;-89
2021/05/16 11:06:46;;;;;;;1.05;0.10;;;;;;;24.25;32.48;99838.18;1635224;86;21092;-88
2021/05/16 11:09:14;;;;;;;1.57;0.10;;;;;;;24.31;31.88;99830.75;1640800;86;21191;-90
2021/05/16 11:11:52;;;;;;;0.30;0.10;;;;;;;24.31;31.94;99829.39;1636965;85;21659;-89
2021/05/16 11:14:38;;;;;;;0.30;0.10;;;;;;;24.32;32.00;99821.47;1650816;85;21025;-91
2021/05/16 11:17:11;;;;;;;1.45;0.20;;;;;;;24.40;31.64;99804.49;1650546;85;21074;-91
2021/05/16 11:19:38;;;;;;;0.20;0.20;;;;;;;24.48;32.21;99796.45;1655834;85;21053;-88
2021/05/16 11:22:14;;;;;;;1.70;0.10;;;;;;;24.51;33.13;99792.34;1637045;85;21774;-89
2021/05/16 11:24:49;;;;;;;0.93;0.13;;;;;;;24.49;32.96;99798.64;1629084;86;21143;-91
2021/05/16 11:27:30;;;;;;;0.98;0.17;;;;;;;24.46;33.69;99797.30;1659081;84;21057;-87
2021/05/16 11:30:10;;;;;;;0.85;0.20;;;;;;;24.44;33.38;99798.15;1671429;84;21694;-89
2021/05/16 11:32:37;;;;;;;0.78;0.20;;;;;;;24.50;33.41;99789.35;1683021;84;21118;-89
2021/05/16 11:35:15;;;;;;;0.30;0.10;;;;;;;24.55;33.06;99785.23;1681478;84;21527;-88
2021/05/16 11:37:44;;;;;;;;;;;;;;;24.61;33.10;99785.41;1642269;85;21175;-89
2021/05/16 11:40:24;;;;;;;0.53;0.15;;;;;;;24.69;32.57;99778.47;1678668;84;20191;-90
2021/05/16 11:43:09;;;;;;;1.02;0.10;;;;;;;24.73;33.10;99775.41;1678524;84;21129;-87
2021/05/16 11:45:40;;;;;;;0.20;0.10;;;;;;;24.83;32.26;99774.46;1651906;83;21055;-88
2021/05/16 11:48:22;;;;;;;0.40;0.10;;;;;;;24.87;32.11;99778.20;1634559;86;21097;-91
2021/05/16 11:50:53;;;;;;;1.12;0.10;;;;;;;24.90;31.84;99772.70;1636475;86;21466;-89
2021/05/16 11:53:22;;;;;;;1.65;0.40;;;;;;;24.89;32.06;99771.09;1645579;85;22287;-88
2021/05/16 11:55:50;;;;;;;0.50;0.10;;;;;;;24.86;32.06;99767.03;1625932;84;21070;-90
2021/05/16 11:58:16;;;;;;;0.65;0.10;;;;;;;24.80;31.74;99769.59;1678673;84;21619;-89
2021/05/16 12:00:43;;;;;;;0.72;0.10;;;;;;;24.70;31.85;99763.76;1672773;83;21054;-86
2021/05/16 12:03:15;;;;;;;0.25;0.10;;;;;;;24.62;31.18;99762.52;1687674;83;21157;-90
2021/05/16 12:05:44;;;;;;;0.10;0.00;;;;;;;24.54;31.62;99762.36;1666581;85;21209;-88
2021/05/16 12:08:19;;;;;;;0.55;0.10;;;;;;;24.51;31.78;99754.21;1673138;84;21159;-89